createdAt,value
2023-03-14T00:01:53.630Z,98288.13
2023-03-14T00:06:56.016Z,98284.55
2023-03-14T00:11:57.793Z,98285.38
2023-03-14T00:16:59.883Z,98281.94
2023-03-14T00:22:01.752Z,98272.57
2023-03-14T00:27:03.733Z,98270.66
2023-03-14T00:32:05.604Z,98260.39
2023-03-14T00:37:07.403Z,98254.91
2023-03-14T00:42:09.154Z,98252.73
2023-03-14T00:47:10.839Z,98239.60
2023-03-14T00:52:12.719Z,98231.92
2023-03-14T00:57:14.691Z,98230.87
2023-03-14T01:02:16.557Z,98236.69
2023-03-14T01:07:19.168Z,98233.77
2023-03-14T01:12:21.243Z,98225.99
2023-03-14T01:17:23.145Z,98228.78
2023-03-14T01:22:25.001Z,98225.55
2023-03-14T01:27:26.663Z,98220.66
2023-03-14T01:32:28.348Z,98210.60
2023-03-14T01:37:30.524Z,98191.90
2023-03-14T01:42:33.013Z,98181.57
2023-03-14T01:47:34.687Z,98174.05
2023-03-14T01:52:47.315Z,98172.17
2023-03-14T01:57:59.236Z,98175.61
2023-03-14T02:03:05.847Z,98173.42
2023-03-14T02:08:12.511Z,98164.49
2023-03-14T02:13:17.752Z,98168.55
2023-03-14T02:18:20.240Z,98166.66
2023-03-14T02:23:36.232Z,98162.64
2023-03-14T02:28:38.539Z,98154.72
2023-03-14T02:33:40.518Z,98138.98
2023-03-14T02:38:55.035Z,98131.00
2023-03-14T02:43:57.683Z,98123.16
2023-03-14T02:49:11.440Z,98126.75
2023-03-14T02:54:14.951Z,98130.98
2023-03-14T02:59:16.623Z,98132.99
2023-03-14T03:04:18.296Z,98134.32
2023-03-14T03:09:20.582Z,98138.89
2023-03-14T03:14:22.460Z,98142.28
2023-03-14T03:19:24.337Z,98151.13
2023-03-14T03:24:26.934Z,98155.30
2023-03-14T03:29:28.811Z,98163.25
2023-03-14T03:34:30.590Z,98180.77
2023-03-14T03:39:32.261Z,98186.77
2023-03-14T03:44:34.139Z,98182.77
2023-03-14T03:49:36.128Z,98183.83
2023-03-14T03:54:37.997Z,98185.59
2023-03-14T03:59:41.613Z,98178.67
2023-03-14T04:04:43.387Z,98177.40
2023-03-14T04:09:46.187Z,98171.80
2023-03-14T04:14:48.064Z,98174.69
2023-03-14T04:19:51.988Z,98172.20
2023-03-14T04:24:53.822Z,98171.48
2023-03-14T04:29:55.846Z,98179.49
2023-03-14T04:34:57.616Z,98165.06
2023-03-14T04:39:59.285Z,98149.69
2023-03-14T04:45:01.486Z,98129.44
2023-03-14T04:50:04.166Z,98124.54
2023-03-14T04:55:06.247Z,98116.27
2023-03-14T05:00:09.460Z,98102.18
2023-03-14T05:05:11.430Z,98086.80
2023-03-14T05:10:14.028Z,98088.86
2023-03-14T05:15:15.802Z,98094.59
2023-03-14T05:20:17.881Z,98093.55
2023-03-14T05:25:19.760Z,98093.48
2023-03-14T05:30:22.350Z,98085.71
2023-03-14T05:35:24.226Z,98080.24
2023-03-14T05:40:26.118Z,98078.90
2023-03-14T05:45:27.976Z,98086.02
2023-03-14T05:50:29.964Z,98082.47
2023-03-14T05:55:31.737Z,98081.88
2023-03-14T06:00:33.615Z,98089.58
2023-03-14T06:05:35.487Z,98097.52
2023-03-14T06:10:38.183Z,98101.94
2023-03-14T06:15:39.956Z,98106.98
2023-03-14T06:20:42.042Z,98111.63
2023-03-14T06:25:43.814Z,98113.10
2023-03-14T06:30:45.986Z,98115.84
2023-03-14T06:35:47.829Z,98114.79
2023-03-14T06:40:49.752Z,98121.00
2023-03-14T06:45:51.470Z,98110.17
2023-03-14T06:50:53.506Z,98118.86
2023-03-14T06:55:55.387Z,98123.05
2023-03-14T07:00:58.246Z,98123.61
2023-03-14T07:06:00.182Z,98099.40
2023-03-14T07:11:02.239Z,98089.74
2023-03-14T07:16:06.940Z,98085.52
2023-03-14T07:21:09.801Z,98093.45
2023-03-14T07:26:11.762Z,98099.85
2023-03-14T07:31:14.027Z,98093.01
2023-03-14T07:36:17.157Z,98086.89
2023-03-14T07:41:19.343Z,98094.52
2023-03-14T07:46:21.149Z,98105.66
2023-03-14T07:51:22.999Z,98096.78
2023-03-14T07:56:24.768Z,98089.27
2023-03-14T08:01:26.650Z,98098.73
2023-03-14T08:06:30.057Z,98104.47
2023-03-14T08:11:32.142Z,98098.68
2023-03-14T08:16:34.470Z,98090.98
2023-03-14T08:21:36.411Z,98084.21
2023-03-14T08:26:38.304Z,98086.02
2023-03-14T08:31:40.320Z,98082.58
2023-03-14T08:36:42.799Z,98096.84
2023-03-14T08:41:45.243Z,98088.38
2023-03-14T08:46:47.056Z,98077.17
2023-03-14T08:51:48.996Z,98059.59
2023-03-14T08:56:50.970Z,98051.23
2023-03-14T09:01:53.261Z,98044.11
2023-03-14T09:06:55.653Z,98045.59
2023-03-14T09:11:58.569Z,98032.52
2023-03-14T09:17:00.636Z,98027.04
2023-03-14T09:22:03.327Z,98024.42
2023-03-14T09:27:05.203Z,98031.45
2023-03-14T09:32:06.892Z,98026.59
2023-03-14T09:37:08.652Z,98016.55
2023-03-14T09:42:16.056Z,98013.25
2023-03-14T09:47:20.491Z,98011.11
2023-03-14T09:52:27.475Z,98007.99
2023-03-14T09:57:30.082Z,98000.23
2023-03-14T10:02:36.251Z,98008.96
2023-03-14T10:07:38.853Z,98021.53
2023-03-14T10:12:42.606Z,98036.11
2023-03-14T10:17:49.988Z,98041.02
2023-03-14T10:22:52.265Z,98045.69
2023-03-14T10:27:54.030Z,98039.27
2023-03-14T10:32:55.949Z,98032.75
2023-03-14T10:38:01.577Z,98036.33
2023-03-14T10:43:07.198Z,98039.11
2023-03-14T10:48:15.373Z,98025.40
2023-03-14T10:53:19.225Z,98016.88
2023-03-14T10:58:23.014Z,98024.84
2023-03-14T11:03:27.686Z,98021.84
2023-03-14T11:08:57.677Z,98022.76
2023-03-14T11:14:04.584Z,98016.03
2023-03-14T11:19:41.592Z,98007.41
2023-03-14T11:25:09.804Z,98001.52
2023-03-14T11:30:26.542Z,97996.27
2023-03-14T11:35:38.926Z,97997.02
2023-03-14T11:40:41.894Z,98004.83
2023-03-14T11:45:47.087Z,97996.46
2023-03-14T11:50:52.751Z,97981.95
2023-03-14T11:55:54.757Z,97980.59
2023-03-14T12:01:00.168Z,97974.96
2023-03-14T12:06:24.608Z,97986.02
2023-03-14T12:11:35.479Z,97996.00
2023-03-14T12:16:41.257Z,97993.35
2023-03-14T12:22:06.477Z,97997.40
2023-03-14T12:27:34.255Z,98006.75
2023-03-14T12:32:36.193Z,98005.50
2023-03-14T12:37:46.555Z,98011.38
2023-03-14T12:43:35.097Z,98005.73
2023-03-14T12:48:40.856Z,97994.17
2023-03-14T12:54:13.749Z,97997.77
2023-03-14T12:59:37.744Z,97999.24
2023-03-14T13:04:42.802Z,98000.55
2023-03-14T13:09:55.322Z,97996.01
2023-03-14T13:15:00.297Z,97995.63
2023-03-14T13:20:17.921Z,97994.76
2023-03-14T13:25:21.598Z,97996.86
2023-03-14T13:30:27.537Z,97997.58
2023-03-14T13:35:38.403Z,97996.79
2023-03-14T13:40:44.165Z,97997.29
2023-03-14T13:45:53.382Z,97994.91
2023-03-14T13:51:07.173Z,97995.42
2023-03-14T13:56:12.524Z,97997.46
2023-03-14T14:01:20.308Z,98004.91
2023-03-14T14:06:56.557Z,97991.36
2023-03-14T14:12:16.080Z,97971.83
2023-03-14T14:17:26.796Z,97975.20
2023-03-14T14:22:29.092Z,97979.39
2023-03-14T14:27:38.514Z,97985.19
2023-03-14T14:32:40.865Z,97987.36
2023-03-14T14:37:44.760Z,97987.10
2023-03-14T14:42:47.139Z,97981.95
2023-03-14T14:48:07.887Z,97979.41
2023-03-14T14:53:38.816Z,97980.20
2023-03-14T14:58:42.561Z,97992.42
2023-03-14T15:03:46.871Z,97990.58
2023-03-14T15:08:49.262Z,97993.13
2023-03-14T15:13:52.994Z,97991.84
2023-03-14T15:18:57.494Z,97985.28
2023-03-14T15:23:59.400Z,97988.33
2023-03-14T15:29:01.173Z,97992.83
2023-03-14T15:34:03.872Z,97987.41
2023-03-14T15:39:07.413Z,97985.58
2023-03-14T15:44:09.274Z,97989.91
2023-03-14T15:49:11.548Z,97995.47
2023-03-14T15:54:13.325Z,97996.55
2023-03-14T15:59:15.307Z,97990.02
2023-03-14T16:04:17.707Z,97988.60
2023-03-14T16:09:20.176Z,97989.17
2023-03-14T16:14:24.200Z,97993.17
2023-03-14T16:19:26.904Z,97995.85
2023-03-14T16:24:28.674Z,98001.92
2023-03-14T16:29:31.577Z,98001.66
2023-03-14T16:34:34.170Z,98008.91
2023-03-14T16:39:51.249Z,98010.33
2023-03-14T16:44:57.989Z,98008.58
2023-03-14T16:55:29.905Z,98023.45
2023-03-14T17:00:32.494Z,98026.25
2023-03-14T17:05:35.195Z,98024.11
2023-03-14T17:10:38.816Z,98025.69
2023-03-14T17:15:53.716Z,98027.64
2023-03-14T17:20:56.395Z,98027.67
2023-03-14T17:25:58.263Z,98025.86
2023-03-14T17:31:08.882Z,98029.04
2023-03-14T17:36:14.562Z,98032.67
2023-03-14T17:41:17.339Z,98036.89
2023-03-14T17:46:19.925Z,98041.77
2023-03-14T17:51:21.984Z,98046.25
2023-03-14T17:56:24.785Z,98046.75
2023-03-14T18:01:27.507Z,98047.54
2023-03-14T18:06:31.171Z,98053.39
2023-03-14T18:11:35.025Z,98056.98
2023-03-14T18:16:37.621Z,98063.50
2023-03-14T18:21:41.347Z,98067.70
2023-03-14T18:26:43.935Z,98067.02
2023-03-14T18:31:45.864Z,98067.80
2023-03-14T18:36:49.336Z,98070.98
2023-03-14T18:41:52.535Z,98075.71
2023-03-14T18:46:54.865Z,98074.84
2023-03-14T18:51:56.599Z,98079.23
2023-03-14T18:57:00.013Z,98085.90
2023-03-14T19:02:02.334Z,98089.80
2023-03-14T19:07:05.293Z,98093.23
2023-03-14T19:12:07.989Z,98088.61
2023-03-14T19:17:10.686Z,98093.98
2023-03-14T19:22:12.881Z,98096.86
2023-03-14T19:27:15.231Z,98097.63
2023-03-14T19:32:19.188Z,98108.09
2023-03-14T19:37:22.292Z,98106.94
2023-03-14T19:42:24.983Z,98106.23
2023-03-14T19:47:30.719Z,98105.79
2023-03-14T19:52:33.244Z,98102.90
2023-03-14T19:57:39.111Z,98103.17
2023-03-14T20:02:44.904Z,98110.50
2023-03-14T20:07:49.116Z,98115.33
2023-03-14T20:12:51.536Z,98124.98
2023-03-14T20:17:54.001Z,98134.03
2023-03-14T20:22:55.822Z,98137.91
2023-03-14T20:27:57.857Z,98135.36
2023-03-14T20:33:04.324Z,98138.09
2023-03-14T20:38:06.528Z,98139.21
2023-03-14T20:43:08.318Z,98138.78
2023-03-14T20:48:10.081Z,98146.27
2023-03-14T20:53:12.089Z,98154.42
2023-03-14T20:58:14.853Z,98158.81
2023-03-14T21:03:19.394Z,98159.06
2023-03-14T21:08:23.828Z,98158.92
2023-03-14T21:13:27.243Z,98163.14
2023-03-14T21:18:31.036Z,98158.67
2023-03-14T21:23:34.171Z,98158.31
2023-03-14T21:28:36.160Z,98157.46
2023-03-14T21:33:38.860Z,98154.36
2023-03-14T21:38:41.540Z,98148.83
2023-03-14T21:43:45.367Z,98155.70
2023-03-14T21:48:47.444Z,98157.49
2023-03-14T21:53:49.426Z,98217.23
2023-03-14T21:58:51.812Z,98272.86
2023-03-14T22:03:53.794Z,98321.50
2023-03-14T22:08:55.769Z,98366.39
2023-03-14T22:13:57.660Z,98415.54
2023-03-14T22:19:00.342Z,98423.52
2023-03-14T22:24:02.157Z,98437.79
2023-03-14T22:29:04.196Z,98446.47
2023-03-14T22:34:05.867Z,98452.55
2023-03-14T22:39:08.056Z,98463.54
2023-03-14T22:44:10.338Z,98498.39
2023-03-14T22:49:12.936Z,98514.81
2023-03-14T22:54:14.704Z,98532.83
2023-03-14T22:59:16.378Z,98556.89
2023-03-14T23:04:18.252Z,98570.13
2023-03-14T23:09:20.906Z,98588.21
2023-03-14T23:14:23.238Z,98604.27
2023-03-14T23:19:28.920Z,98619.99
2023-03-14T23:24:30.584Z,98651.20
2023-03-14T23:29:32.263Z,98678.40
2023-03-14T23:34:36.797Z,98700.52
2023-03-14T23:39:39.902Z,98728.44
2023-03-14T23:44:41.503Z,98737.16
2023-03-14T23:49:43.451Z,98735.54
2023-03-14T23:54:45.436Z,98750.60
2023-03-14T23:59:47.154Z,98758.95
